Time;durP1;ratioP1;P1;durP2;ratioP2;P2;SDS_P1;SDS_P2;PMS_P1;PMS_P2;Temp;Humidity;BMP_temperature;BMP_pressure;BME280_temperature;BME280_humidity;BME280_pressure;Samples;Min_cycle;Max_cycle;Signal;HPM_P1;HPM_P2
2020/12/01 00:01:49;;;;;;;2.00;1.87;;;;;;;-3.84;82.78;98723.36;1852102;77;21144;-75
2020/12/01 00:04:18;;;;;;;2.77;2.47;;;;;;;-3.80;82.49;98726.23;1852306;77;21387;-77
2020/12/01 00:06:46;;;;;;;4.05;3.40;;;;;;;-3.76;82.29;98722.75;1851190;77;21131;-77
2020/12/01 00:09:15;;;;;;;6.03;2.40;;;;;;;-3.74;82.15;98729.08;1851309;77;21536;-77
2020/12/01 00:11:45;;;;;;;3.67;2.87;;;;;;;-3.71;82.00;98725.19;1850392;77;21144;-77
2020/12/01 00:14:13;;;;;;;3.52;2.62;;;;;;;-3.70;81.96;98726.43;1851288;77;21577;-77
2020/12/01 00:16:41;;;;;;;5.95;4.25;;;;;;;-3.71;81.92;98737.45;1851581;77;21136;-76
2020/12/01 00:19:09;;;;;;;6.05;4.17;;;;;;;-3.72;81.91;98732.39;1848860;77;21183;-76
2020/12/01 00:21:38;;;;;;;5.92;4.28;;;;;;;-3.74;82.18;98732.45;1851740;77;21152;-77
2020/12/01 00:24:06;;;;;;;8.93;3.98;;;;;;;-3.75;82.25;98729.94;1851558;77;21108;-76
2020/12/01 00:26:34;;;;;;;3.92;3.00;;;;;;;-3.69;82.26;98733.58;1850864;77;21147;-77
2020/12/01 00:29:02;;;;;;;8.55;3.33;;;;;;;-3.71;82.66;98732.80;1850765;77;21659;-77
2020/12/01 00:31:29;;;;;;;9.80;7.20;;;;;;;-3.69;83.13;98731.05;1851048;77;21552;-76
2020/12/01 00:33:57;;;;;;;7.87;4.65;;;;;;;-3.85;86.08;98731.84;1850970;77;21136;-76
2020/12/01 00:36:27;;;;;;;8.33;3.98;;;;;;;-3.84;85.57;98731.81;1851370;77;21139;-76
2020/12/01 00:38:55;;;;;;;4.83;4.42;;;;;;;-3.76;84.99;98732.91;1851788;77;21148;-76
2020/12/01 00:41:23;;;;;;;8.18;5.47;;;;;;;-3.70;84.49;98733.20;1852115;77;21140;-76
2020/12/01 00:43:51;;;;;;;8.65;4.62;;;;;;;-3.65;84.01;98734.75;1851874;77;21150;-76
2020/12/01 00:46:19;;;;;;;5.47;4.12;;;;;;;-3.60;85.11;98739.28;1851607;77;21136;-76
2020/12/01 00:48:47;;;;;;;10.93;5.55;;;;;;;-3.54;84.70;98735.31;1851086;77;21200;-78
2020/12/01 00:51:16;;;;;;;5.70;3.98;;;;;;;-3.51;85.28;98734.43;1821502;77;21116;-76
2020/12/01 00:53:45;;;;;;;6.17;3.87;;;;;;;-3.48;84.72;98733.08;1850850;77;21121;-76
2020/12/01 00:56:22;;;;;;;7.55;4.65;;;;;;;-3.45;84.91;98733.83;1850994;77;21151;-77
2020/12/01 00:58:51;;;;;;;13.95;7.45;;;;;;;-3.43;85.05;98735.91;1851926;77;21686;-78
2020/12/01 01:01:21;;;;;;;11.40;6.28;;;;;;;-3.41;85.23;98733.31;1850886;77;21694;-77
2020/12/01 01:03:49;;;;;;;7.47;4.22;;;;;;;-3.37;84.97;98731.94;1820583;77;21226;-77
2020/12/01 01:06:17;;;;;;;8.20;6.28;;;;;;;-3.35;85.02;98733.19;1851121;77;21155;-76
2020/12/01 01:08:45;;;;;;;16.23;4.72;;;;;;;-3.33;85.30;98726.77;1852245;77;21140;-77
2020/12/01 01:11:12;;;;;;;13.38;6.05;;;;;;;-3.28;85.15;98727.50;1851471;77;21140;-77
2020/12/01 01:13:41;;;;;;;8.43;5.10;;;;;;;-3.24;84.57;98721.47;1851961;77;21215;-79
2020/12/01 01:16:09;;;;;;;14.83;6.70;;;;;;;-3.16;84.42;98722.11;1851886;77;21663;-78
2020/12/01 01:18:37;;;;;;;12.28;6.97;;;;;;;-3.15;84.33;98716.16;1851655;77;21105;-77
2020/12/01 01:21:05;;;;;;;14.10;5.70;;;;;;;-3.12;84.07;98710.56;1851785;77;21819;-77
2020/12/01 01:23:33;;;;;;;10.63;6.33;;;;;;;-3.08;84.06;98708.34;1851496;77;21345;-78
2020/12/01 01:26:01;;;;;;;5.60;4.25;;;;;;;-3.10;83.89;98715.15;1851041;77;21147;-77
2020/12/01 01:28:29;;;;;;;10.55;7.30;;;;;;;-3.05;83.62;98704.87;1850384;77;21155;-76
2020/12/01 01:30:56;;;;;;;13.93;5.47;;;;;;;-3.08;83.54;98705.80;1848602;78;21144;-77
2020/12/01 01:33:24;;;;;;;12.82;7.17;;;;;;;-3.03;83.25;98700.56;1848483;78;21695;-77
2020/12/01 01:35:54;;;;;;;15.50;5.62;;;;;;;-3.06;83.80;98695.57;1848329;78;21140;-78
2020/12/01 01:38:22;;;;;;;13.68;5.30;;;;;;;-3.05;83.43;98695.55;1848553;78;21136;-77
2020/12/01 01:40:59;;;;;;;11.80;5.10;;;;;;;-3.04;83.27;98698.48;1848617;78;21149;-78
2020/12/01 01:43:27;;;;;;;7.92;6.05;;;;;;;-3.02;83.09;98692.08;1848591;78;21667;-76
2020/12/01 01:45:55;;;;;;;10.80;6.15;;;;;;;-3.00;82.87;98691.61;1848278;78;21186;-76
2020/12/01 01:48:32;;;;;;;11.22;4.87;;;;;;;-3.04;83.43;98691.30;1848376;78;21509;-75
2020/12/01 01:51:14;;;;;;;10.10;4.83;;;;;;;-3.04;83.24;98683.24;1847791;78;21123;-76
2020/12/01 01:53:46;;;;;;;8.75;4.58;;;;;;;-3.03;83.22;98680.23;1848414;78;21309;-77
2020/12/01 01:56:19;;;;;;;7.20;3.98;;;;;;;-3.02;82.81;98677.67;1848485;78;21164;-77
2020/12/01 01:58:47;;;;;;;10.68;6.80;;;;;;;-3.01;83.20;98676.80;1848908;78;21165;-77
2020/12/01 02:01:21;;;;;;;14.55;5.78;;;;;;;-3.02;83.15;98684.45;1848707;77;21680;-76
2020/12/01 02:03:59;;;;;;;13.75;7.78;;;;;;;-3.16;84.13;98681.46;1848894;78;21140;-75
2020/12/01 02:06:52;;;;;;;10.63;7.08;;;;;;;-3.66;87.10;98687.41;1848854;78;21281;-76
2020/12/01 02:09:29;;;;;;;13.53;5.60;;;;;;;-3.72;87.85;98687.55;1848305;78;21533;-77
2020/12/01 02:12:02;;;;;;;5.55;4.15;;;;;;;-3.66;87.68;98691.22;1823191;78;21137;-76
2020/12/01 02:14:42;;;;;;;6.25;4.70;;;;;;;-3.53;86.56;98685.38;1848564;78;21137;-76
2020/12/01 02:17:29;;;;;;;6.08;4.90;;;;;;;-3.51;86.53;98687.03;1848391;78;21251;-76
2020/12/01 02:20:01;;;;;;;;;;;;;;;-3.45;86.46;98689.83;1851422;78;21270;-75
2020/12/01 02:22:28;;;;;;;4.70;2.80;;;;;;;-3.38;85.87;98687.52;1847583;78;20135;-75
2020/12/01 02:24:57;;;;;;;3.30;2.20;;;;;;;-3.37;86.24;98688.77;1848688;78;21129;-75
2020/12/01 02:27:28;;;;;;;6.60;3.12;;;;;;;-3.32;85.98;98686.55;1848733;78;21215;-74
2020/12/01 02:30:01;;;;;;;6.58;3.33;;;;;;;-3.31;85.89;98691.59;1848079;78;21140;-76
2020/12/01 02:32:29;;;;;;;6.40;4.42;;;;;;;-3.39;86.28;98691.80;1847703;77;21176;-76
2020/12/01 02:34:59;;;;;;;5.83;4.20;;;;;;;-3.48;87.58;98689.91;1847418;78;21141;-76
2020/12/01 02:37:29;;;;;;;5.80;4.37;;;;;;;-3.67;88.35;98681.93;1848201;77;21172;-77
2020/12/01 02:40:00;;;;;;;4.42;3.08;;;;;;;-3.68;88.34;98686.60;1848502;78;21140;-75
2020/12/01 02:42:27;;;;;;;9.88;4.45;;;;;;;-3.63;88.05;98685.22;1848099;78;21616;-75
2020/12/01 02:44:57;;;;;;;14.63;6.15;;;;;;;-3.82;89.08;98687.38;1848148;77;21129;-74
2020/12/01 02:47:28;;;;;;;8.03;5.65;;;;;;;-3.87;89.22;98683.69;1844251;78;21144;-74
2020/12/01 02:49:56;;;;;;;4.30;3.65;;;;;;;-3.96;90.13;98679.25;1848240;77;21207;-77
2020/12/01 02:52:23;;;;;;;6.40;3.42;;;;;;;-3.77;89.35;98676.66;1848049;77;21581;-76
2020/12/01 02:54:51;;;;;;;8.33;5.08;;;;;;;-3.78;89.77;98677.56;1848945;78;21194;-75
2020/12/01 02:57:21;;;;;;;7.35;4.87;;;;;;;-3.91;90.09;98674.47;1848953;77;21116;-77
2020/12/01 02:59:48;;;;;;;8.35;5.35;;;;;;;-3.94;92.46;98678.80;1848615;77;21156;-76
2020/12/01 03:02:16;;;;;;;9.90;5.47;;;;;;;-4.01;92.32;98677.28;1847849;77;21132;-75
2020/12/01 03:04:44;;;;;;;6.90;4.67;;;;;;;-3.90;91.61;98673.61;1847440;78;21109;-75
2020/12/01 03:07:12;;;;;;;10.18;6.55;;;;;;;-3.92;92.21;98673.23;1847547;78;21148;-75
2020/12/01 03:09:40;;;;;;;6.50;4.10;;;;;;;-4.05;92.62;98670.61;1848137;78;21172;-76
2020/12/01 03:12:09;;;;;;;10.82;5.85;;;;;;;-3.94;92.56;98672.02;1847678;77;21132;-75
2020/12/01 03:14:37;;;;;;;6.22;4.10;;;;;;;-3.97;93.84;98674.60;1847557;78;21145;-75
2020/12/01 03:17:05;;;;;;;9.10;4.05;;;;;;;-4.08;93.16;98668.95;1847255;78;21188;-75
2020/12/01 03:19:33;;;;;;;11.70;6.87;;;;;;;-4.08;91.48;98666.84;1847253;77;21210;-75
2020/12/01 03:22:01;;;;;;;3.40;3.12;;;;;;;-4.11;92.31;98666.92;1847296;78;21132;-75
2020/12/01 03:24:29;;;;;;;2.15;1.82;;;;;;;-4.02;91.95;98666.29;1847697;78;21559;-77
2020/12/01 03:30:07;;;;;;;2.10;1.90;;;;;;;-3.98;91.98;98660.27;1782243;80;21219;-75
2020/12/01 03:32:34;;;;;;;6.17;3.00;;;;;;;-3.91;91.84;98664.76;1782029;80;21160;-75
2020/12/01 03:35:03;;;;;;;3.87;2.70;;;;;;;-3.92;92.00;98666.89;1781797;80;21600;-75
2020/12/01 03:37:31;;;;;;;5.12;3.27;;;;;;;-3.89;92.08;98664.30;1781730;80;21203;-75
2020/12/01 03:39:59;;;;;;;9.10;4.05;;;;;;;-3.90;92.50;98663.89;1781636;80;21159;-75
2020/12/01 03:42:27;;;;;;;5.42;4.30;;;;;;;-3.81;92.12;98665.38;1781954;80;21159;-75
2020/12/01 03:44:55;;;;;;;14.07;6.90;;;;;;;-3.84;92.83;98663.30;1781873;80;21556;-75
2020/12/01 03:47:23;;;;;;;8.13;5.03;;;;;;;-4.00;93.24;98662.43;1781940;80;21211;-74
2020/12/01 03:49:52;;;;;;;13.05;5.10;;;;;;;-3.95;93.87;98663.16;1781894;80;21159;-74
2020/12/01 03:52:20;;;;;;;8.15;4.53;;;;;;;-3.91;93.97;98660.52;1781859;80;21604;-76
2020/12/01 03:54:48;;;;;;;6.05;3.08;;;;;;;-3.80;93.40;98664.05;1781963;80;21152;-76
2020/12/01 03:57:16;;;;;;;11.05;3.92;;;;;;;-3.75;92.78;98665.22;1782048;80;21687;-76
2020/12/01 03:59:43;;;;;;;9.48;4.10;;;;;;;-3.66;92.57;98669.64;1782093;80;21159;-76
2020/12/01 04:02:11;;;;;;;3.52;3.22;;;;;;;-3.76;93.78;98672.42;1782205;80;21156;-76
2020/12/01 04:04:39;;;;;;;5.83;4.72;;;;;;;-3.71;93.24;98675.27;1782019;80;21694;-76
2020/12/01 04:07:07;;;;;;;5.65;3.52;;;;;;;-3.82;93.47;98672.16;1782144;80;21214;-75
2020/12/01 04:09:35;;;;;;;3.72;2.17;;;;;;;-3.78;92.60;98673.75;1782266;80;21180;-75
2020/12/01 04:12:03;;;;;;;2.72;2.42;;;;;;;-3.81;92.04;98672.53;1782296;80;21144;-75
2020/12/01 04:14:31;;;;;;;4.03;3.62;;;;;;;-3.73;91.78;98677.42;1782267;80;21143;-74
2020/12/01 04:16:59;;;;;;;3.77;3.25;;;;;;;-3.76;92.22;98674.53;1782149;80;21160;-75
2020/12/01 04:19:27;;;;;;;3.30;2.65;;;;;;;-3.77;92.18;98674.13;1781922;80;21573;-77
2020/12/01 04:21:55;;;;;;;2.15;1.75;;;;;;;-3.76;92.53;98678.77;1781727;80;21683;-75
2020/12/01 04:24:23;;;;;;;5.60;3.90;;;;;;;-3.71;92.37;98675.69;1781706;80;21687;-76
2020/12/01 04:26:51;;;;;;;4.45;2.90;;;;;;;-3.75;91.71;98674.10;1781648;80;21164;-76
2020/12/01 04:29:18;;;;;;;3.72;2.35;;;;;;;-3.77;91.45;98671.59;1781817;80;21181;-77
2020/12/01 04:31:46;;;;;;;3.12;2.20;;;;;;;-4.13;92.21;98617.95;1798143;78;21142;-76
2020/12/01 04:34:14;;;;;;;3.42;3.10;;;;;;;-3.80;91.86;98670.83;1798374;78;21142;-76
2020/12/01 04:36:46;;;;;;;10.50;3.33;;;;;;;-3.93;92.29;98669.86;1797510;78;21166;-79
2020/12/01 04:39:13;;;;;;;3.22;2.52;;;;;;;-3.90;92.32;98666.44;1798942;78;21598;-76
2020/12/01 04:41:41;;;;;;;4.15;2.60;;;;;;;-3.93;92.36;98674.93;1798531;78;21599;-76
2020/12/01 04:44:31;;;;;;;10.75;5.10;;;;;;;-3.87;92.04;98673.97;1769984;78;21118;-76
2020/12/01 04:47:09;;;;;;;5.10;2.62;;;;;;;-3.99;92.67;98671.28;1798694;78;21133;-75
2020/12/01 04:49:41;;;;;;;5.05;4.35;;;;;;;-3.95;92.60;98669.08;1798886;78;21137;-76
2020/12/01 04:52:22;;;;;;;3.80;2.72;;;;;;;-3.92;92.58;98669.42;1798607;78;21166;-74
2020/12/01 04:55:26;;;;;;;2.27;1.72;;;;;;;-3.86;92.43;98666.76;1778197;80;21165;-74
2020/12/01 04:58:34;;;;;;;2.65;1.65;;;;;;;-3.83;92.78;98669.21;1798285;78;21173;-73
2020/12/01 05:01:10;;;;;;;11.53;6.12;;;;;;;-3.75;92.36;98666.48;1797968;78;21110;-73
2020/12/01 05:03:53;;;;;;;6.60;4.15;;;;;;;-3.90;94.31;98666.00;1799328;78;21570;-73
2020/12/01 05:07:00;;;;;;;8.25;1.82;;;;;;;-3.76;93.97;98658.47;1789687;78;21194;-73
2020/12/01 05:12:39;;;;;;;5.05;2.15;;;;;;;-3.73;93.84;98661.76;1748225;81;21606;-77
2020/12/01 05:15:22;;;;;;;2.10;1.90;;;;;;;-3.60;93.40;98661.86;1718013;82;21193;-78
2020/12/01 05:18:29;;;;;;;5.72;3.17;;;;;;;-3.49;92.55;98659.87;1713252;83;21171;-78
2020/12/01 05:21:01;;;;;;;4.20;3.83;;;;;;;-3.47;92.48;98659.85;1711267;83;21192;-78
2020/12/01 05:23:54;;;;;;;4.85;2.52;;;;;;;-3.53;92.94;98657.45;1724625;83;21195;-77
2020/12/01 05:26:23;;;;;;;6.47;4.00;;;;;;;-3.57;93.37;98663.05;1727726;83;21615;-78
2020/12/01 05:28:56;;;;;;;8.20;4.92;;;;;;;-3.59;94.22;98657.19;1728423;83;21318;-77
2020/12/01 05:31:29;;;;;;;7.70;6.90;;;;;;;-3.62;93.93;98662.32;1717733;82;21192;-79
2020/12/01 05:34:04;;;;;;;11.97;4.65;;;;;;;-3.69;94.25;98656.17;1720001;83;21190;-79
2020/12/01 05:36:36;;;;;;;5.53;3.83;;;;;;;-3.53;93.57;98663.80;1728506;83;21229;-79
2020/12/01 05:39:35;;;;;;;4.78;3.52;;;;;;;-3.46;92.97;98664.88;1728310;83;21170;-78
2020/12/01 05:42:09;;;;;;;6.83;2.47;;;;;;;-3.55;92.90;98663.02;1702976;84;21170;-78
2020/12/01 05:44:37;;;;;;;6.37;2.92;;;;;;;-3.52;91.89;98657.86;1705531;83;21143;-77
2020/12/01 05:47:29;;;;;;;6.50;4.72;;;;;;;-3.46;91.91;98658.52;1690075;84;21167;-79
2020/12/01 05:50:15;;;;;;;2.60;1.40;;;;;;;-3.55;91.87;98648.62;1649303;84;21684;-73
2020/12/01 05:52:48;;;;;;;4.00;2.70;;;;;;;-3.40;91.37;98656.27;1633359;87;21247;-76
2020/12/01 05:55:26;;;;;;;2.08;1.57;;;;;;;-3.28;90.39;98652.58;1638337;87;21603;-77
2020/12/01 05:58:12;;;;;;;1.95;0.78;;;;;;;-3.26;89.43;98648.27;1636237;86;21159;-75
2020/12/01 06:00:43;;;;;;;1.37;1.22;;;;;;;-3.16;89.20;98648.44;1636228;86;21148;-79
2020/12/01 06:03:22;;;;;;;3.20;2.95;;;;;;;-3.14;89.10;98650.48;1636813;86;21186;-77
2020/12/01 06:05:53;;;;;;;2.42;2.10;;;;;;;-3.21;88.56;98652.80;1651979;83;21105;-78
2020/12/01 06:08:33;;;;;;;3.95;3.25;;;;;;;-3.26;88.27;98649.11;1698996;83;21151;-79
2020/12/01 06:11:38;;;;;;;8.53;2.12;;;;;;;-3.28;88.59;98649.60;1669161;86;21218;-79
2020/12/01 06:14:38;;;;;;;2.80;1.65;;;;;;;-3.22;88.96;98653.23;1681204;85;21245;-77
2020/12/01 06:20:05;;;;;;;2.95;2.15;;;;;;;-3.15;88.84;98655.19;1697799;84;21171;-78
2020/12/01 06:23:02;;;;;;;1.42;1.22;;;;;;;-3.21;88.64;98657.88;1697192;84;21132;-80
2020/12/01 06:25:46;;;;;;;3.27;2.33;;;;;;;-3.10;88.89;98660.52;1718877;83;21199;-75
2020/12/01 06:31:56;;;;;;;2.17;2.05;;;;;;;-3.09;89.30;98663.47;1725059;83;21155;-79
2020/12/01 06:34:58;;;;;;;6.67;3.15;;;;;;;-3.05;89.05;98652.78;1760914;80;21138;-79
2020/12/01 06:38:14;;;;;;;1.77;1.62;;;;;;;-3.01;89.07;98646.31;1777006;79;21118;-80
2020/12/01 06:40:50;;;;;;;3.33;2.92;;;;;;;-2.89;88.28;98646.41;1761157;80;21169;-78
2020/12/01 06:43:26;;;;;;;1.65;1.55;;;;;;;-2.92;87.92;98649.84;1761016;80;21110;-78
2020/12/01 06:45:58;;;;;;;1.80;1.67;;;;;;;-2.96;87.68;98646.19;1735916;80;21110;-78
2020/12/01 06:48:42;;;;;;;6.60;3.10;;;;;;;-2.97;86.90;98645.34;1760933;80;21141;-78
2020/12/01 06:51:13;;;;;;;1.47;1.37;;;;;;;-2.98;86.58;98648.76;1762029;80;21512;-76
2020/12/01 06:53:42;;;;;;;1.95;1.65;;;;;;;-2.94;86.39;98645.69;1761478;80;21174;-78
2020/12/01 06:56:17;;;;;;;2.70;2.42;;;;;;;-2.97;86.63;98644.08;1761826;80;21111;-78
2020/12/01 06:58:50;;;;;;;10.47;3.80;;;;;;;-2.89;87.15;98647.67;1761574;80;21489;-79
2020/12/01 07:01:29;;;;;;;3.65;3.02;;;;;;;-3.02;88.03;98650.16;1761593;80;21361;-78
2020/12/01 07:04:14;;;;;;;4.20;3.77;;;;;;;-2.96;87.97;98643.64;1761861;80;21737;-79
2020/12/01 07:06:50;;;;;;;4.67;2.52;;;;;;;-2.96;87.97;98643.64;1761812;80;21115;-78
2020/12/01 07:09:27;;;;;;;5.22;3.42;;;;;;;-2.97;88.11;98644.52;1763373;80;21618;-78
2020/12/01 07:12:06;;;;;;;6.47;2.95;;;;;;;-2.90;87.85;98648.54;1766577;79;21115;-80
2020/12/01 07:14:58;;;;;;;4.17;3.77;;;;;;;-2.94;87.68;98641.44;1726242;81;21234;-79
2020/12/01 07:17:37;;;;;;;4.35;1.47;;;;;;;-2.95;87.07;98640.20;1779178;79;21149;-79
2020/12/01 07:20:37;;;;;;;3.77;2.60;;;;;;;-2.84;86.29;98631.03;1761007;80;21138;-79
2020/12/01 07:23:29;;;;;;;1.32;1.22;;;;;;;-2.82;85.62;98640.27;1726082;81;21182;-79
2020/12/01 07:26:03;;;;;;;4.55;3.72;;;;;;;-2.77;85.76;98632.51;1736537;81;21324;-79
2020/12/01 07:28:51;;;;;;;3.25;2.67;;;;;;;-2.85;86.12;98630.63;1736444;82;21246;-79
2020/12/01 07:37:31;;;;;;;4.47;2.70;;;;;;;-2.84;84.26;98625.94;1712280;82;21611;-72
2020/12/01 07:40:02;;;;;;;7.42;4.25;;;;;;;-2.78;88.26;98624.05;1712300;83;21174;-71
2020/12/01 07:42:34;;;;;;;7.83;4.45;;;;;;;-2.93;84.35;98625.33;1712355;82;21217;-71
2020/12/01 07:45:16;;;;;;;5.50;2.47;;;;;;;-3.02;85.54;98628.55;1712073;84;21642;-72
2020/12/01 07:47:44;;;;;;;4.72;4.00;;;;;;;-2.93;85.08;98624.06;1712418;82;21210;-69
2020/12/01 07:50:20;;;;;;;2.67;2.47;;;;;;;-2.88;85.96;98626.01;1712359;83;21222;-77
2020/12/01 07:52:51;;;;;;;;;;;;;;;-2.69;84.29;98622.52;1715164;84;21186;-78
2020/12/01 07:55:36;;;;;;;3.72;1.87;;;;;;;-2.68;84.72;98627.13;1712746;84;20145;-75
2020/12/01 07:58:19;;;;;;;3.15;1.95;;;;;;;-2.50;83.90;98627.44;1712229;82;21259;-76
2020/12/01 08:00:55;;;;;;;3.83;3.35;;;;;;;-2.31;84.01;98631.52;1711897;82;21234;-75
2020/12/01 08:03:31;;;;;;;4.72;3.02;;;;;;;-2.36;83.12;98632.53;1711838;82;21222;-76
2020/12/01 08:06:08;;;;;;;5.50;2.83;;;;;;;-2.38;82.68;98627.52;1711935;82;21186;-75
2020/12/01 08:08:42;;;;;;;6.47;3.87;;;;;;;-2.47;82.91;98629.05;1712175;82;21630;-72
2020/12/01 08:11:14;;;;;;;16.70;3.35;;;;;;;-2.35;81.95;98632.93;1712124;82;21174;-76
2020/12/01 08:13:44;;;;;;;9.00;4.40;;;;;;;-2.18;81.80;98626.89;1712208;82;21170;-76
2020/12/01 08:16:30;;;;;;;6.60;3.75;;;;;;;-2.09;81.69;98627.42;1712125;82;21207;-75
2020/12/01 08:18:59;;;;;;;6.72;4.28;;;;;;;-2.30;82.27;98624.73;1712218;82;21178;-75
2020/12/01 08:21:35;;;;;;;5.55;3.35;;;;;;;-2.15;82.13;98621.70;1766559;80;21173;-75
2020/12/01 08:27:25;;;;;;;3.00;2.72;;;;;;;-2.31;83.12;98621.34;1773336;80;21126;-75
2020/12/01 08:29:56;;;;;;;2.08;1.47;;;;;;;-2.21;82.47;98620.17;1786727;80;21615;-76
2020/12/01 08:32:43;;;;;;;4.25;2.90;;;;;;;-2.07;82.60;98626.11;1786685;80;21170;-74
2020/12/01 08:38:33;;;;;;;10.70;4.58;;;;;;;-1.96;82.61;98629.97;1700201;83;21202;-74
2020/12/01 08:41:30;;;;;;;2.98;2.37;;;;;;;-2.15;83.84;98622.97;1699515;83;21164;-74
2020/12/01 08:44:20;;;;;;;4.55;3.80;;;;;;;-1.89;82.79;98615.76;1664238;85;21194;-73
2020/12/01 08:46:49;;;;;;;5.60;3.08;;;;;;;-1.89;82.79;98615.76;1701833;82;21205;-75
2020/12/01 08:52:03;;;;;;;6.58;4.67;;;;;;;-1.81;82.53;98615.07;1692774;85;21319;-73
2020/12/01 08:54:35;;;;;;;5.10;2.65;;;;;;;-1.82;82.35;98612.13;1664853;86;21195;-73
2020/12/01 08:57:08;;;;;;;11.03;4.30;;;;;;;-1.82;82.35;98612.13;1694345;85;21227;-73
2020/12/01 08:59:53;;;;;;;5.95;3.10;;;;;;;-1.91;81.52;98610.27;1678792;83;21183;-72
2020/12/01 09:02:22;;;;;;;7.05;4.50;;;;;;;-1.91;81.52;98610.27;1689526;85;21171;-71
2020/12/01 09:05:00;;;;;;;4.95;3.35;;;;;;;-1.90;81.83;98611.11;1696390;83;21587;-71
2020/12/01 09:07:35;;;;;;;7.80;3.80;;;;;;;-2.00;82.46;98609.31;1697221;83;21211;-71
2020/12/01 09:10:30;;;;;;;5.87;4.05;;;;;;;-2.05;83.32;98606.08;1685781;83;21171;-69
2020/12/01 09:13:22;;;;;;;5.55;3.98;;;;;;;-2.17;83.62;98599.27;1666081;85;21167;-69
2020/12/01 09:15:54;;;;;;;13.40;6.05;;;;;;;-2.42;83.30;98572.53;1650511;84;21651;-68
2020/12/01 09:19:08;;;;;;;4.67;4.17;;;;;;;-2.27;83.52;98592.83;1687190;83;21594;-68
2020/12/01 09:24:04;;;;;;;6.05;3.65;;;;;;;-1.97;82.79;98591.83;1768852;81;21164;-71
2020/12/01 09:26:32;;;;;;;6.10;3.55;;;;;;;-1.96;82.69;98590.95;1766133;81;21219;-71
2020/12/01 09:29:02;;;;;;;4.37;3.27;;;;;;;-1.97;82.37;98582.92;1761750;81;21621;-70
2020/12/01 09:31:35;;;;;;;10.20;4.62;;;;;;;-1.83;81.90;98569.75;1761857;80;21593;-71
2020/12/01 09:34:04;;;;;;;7.10;3.50;;;;;;;-1.62;81.40;98574.09;1762024;81;21176;-71
2020/12/01 09:36:32;;;;;;;9.15;4.83;;;;;;;-1.62;81.40;98574.09;1753452;81;21202;-71
2020/12/01 09:39:00;;;;;;;7.37;4.00;;;;;;;-1.39;80.12;98566.48;1725860;82;21209;-73
2020/12/01 09:41:29;;;;;;;8.88;4.17;;;;;;;-1.39;80.12;98566.48;1725812;82;21226;-75
2020/12/01 09:44:21;;;;;;;13.03;3.75;;;;;;;-1.55;80.28;98570.01;1725829;82;21161;-77
2020/12/01 09:46:56;;;;;;;4.80;3.65;;;;;;;-1.44;79.92;98561.55;1728855;82;21588;-72
2020/12/01 09:49:18;;;;;;;6.17;3.30;;;;;;;-1.34;80.02;98555.69;1733103;81;21197;-73
2020/12/01 09:51:56;;;;;;;10.35;4.00;;;;;;;-1.33;79.88;98552.27;1728449;81;21140;-72
2020/12/01 09:54:25;;;;;;;4.55;3.17;;;;;;;-1.32;80.11;98543.72;1733599;82;21156;-73
2020/12/01 09:57:52;;;;;;;15.93;5.87;;;;;;;-1.38;80.21;98543.11;1736672;82;21197;-74
2020/12/01 09:59:42;;;;;;;8.53;4.08;;;;;;;-1.33;79.74;98534.44;1708958;81;21678;-74
2020/12/01 10:08:07;;;;;;;14.60;5.20;;;;;;;-1.19;78.58;98534.75;1850898;76;23251;-74
2020/12/01 10:13:32;;;;;;;7.45;4.83;;;;;;;-1.77;80.05;98537.27;1827487;77;21158;-74
2020/12/01 10:18:52;;;;;;;6.35;3.08;;;;;;;-1.15;78.50;98519.73;1838506;76;21585;-74
2020/12/01 10:34:29;;;;;;;5.33;4.78;;;;;;;-1.18;78.75;98517.30;1843767;78;21170;-74
2020/12/01 10:36:55;;;;;;;8.70;5.50;;;;;;;-1.16;78.47;98514.67;1839789;77;21600;-74
2020/12/01 10:39:24;;;;;;;7.95;4.97;;;;;;;-1.31;79.47;98496.14;1758255;81;21211;-75
2020/12/01 10:41:52;;;;;;;13.55;4.90;;;;;;;-1.30;79.54;98497.81;1788954;80;21133;-73
2020/12/01 10:44:21;;;;;;;11.30;6.80;;;;;;;-1.38;79.76;98502.35;1758335;81;21195;-74
2020/12/01 10:46:51;;;;;;;8.58;6.25;;;;;;;-1.45;80.36;98499.20;1756023;81;21164;-72
2020/12/01 10:49:20;;;;;;;9.10;5.05;;;;;;;-1.64;80.59;98501.59;1749583;81;21233;-72
2020/12/01 10:51:49;;;;;;;7.03;4.05;;;;;;;-1.67;81.49;98500.84;1769701;80;21203;-73
2020/12/01 10:54:18;;;;;;;7.30;4.58;;;;;;;-1.68;82.17;98500.48;1769135;81;21596;-73
2020/12/01 10:56:49;;;;;;;8.98;4.95;;;;;;;-1.65;81.81;98501.64;1766202;81;21589;-73
2020/12/01 10:59:19;;;;;;;14.87;5.25;;;;;;;-1.54;80.88;98499.09;1756782;82;21231;-75
2020/12/01 11:01:47;;;;;;;9.28;5.60;;;;;;;-1.55;80.79;98493.60;1767472;81;21676;-74
2020/12/01 11:04:14;;;;;;;9.43;3.67;;;;;;;-1.73;81.26;98496.81;1776010;81;21163;-74
2020/12/01 11:06:43;;;;;;;6.90;4.05;;;;;;;-1.55;80.63;98496.59;1755145;81;21204;-75
2020/12/01 11:09:11;;;;;;;6.80;4.42;;;;;;;-1.53;79.92;98485.92;1743493;81;21180;-74
2020/12/01 11:11:40;;;;;;;21.12;4.37;;;;;;;-1.51;80.41;98484.97;1751381;82;21425;-75
2020/12/01 11:14:10;;;;;;;8.85;3.52;;;;;;;-1.44;80.07;98483.84;1771796;81;21211;-76
2020/12/01 11:16:38;;;;;;;3.45;2.80;;;;;;;-1.39;79.65;98477.31;1751066;82;21173;-75
2020/12/01 11:19:06;;;;;;;9.13;6.25;;;;;;;-1.17;79.14;98471.83;1770712;81;21203;-76
2020/12/01 11:21:36;;;;;;;6.95;4.05;;;;;;;-1.26;79.88;98466.23;1750365;80;21168;-73
2020/12/01 11:24:07;;;;;;;8.55;5.28;;;;;;;-1.18;80.04;98465.06;1747731;80;21176;-74
2020/12/01 11:26:37;;;;;;;7.85;4.42;;;;;;;-1.38;80.67;98461.16;1772321;80;21291;-73
2020/12/01 11:29:06;;;;;;;7.10;4.80;;;;;;;-1.22;80.64;98462.69;1739252;81;21121;-74
2020/12/01 11:31:35;;;;;;;7.12;4.62;;;;;;;-1.34;80.61;98457.61;1751545;81;21635;-74
2020/12/01 11:34:08;;;;;;;6.28;3.85;;;;;;;-1.20;80.20;98460.89;1717154;82;21630;-73
2020/12/01 11:36:39;;;;;;;7.80;5.30;;;;;;;-1.16;79.52;98465.82;1742965;81;21338;-74
2020/12/01 11:39:14;;;;;;;11.28;4.55;;;;;;;-1.20;79.97;98460.89;1752806;81;21246;-75
2020/12/01 11:41:42;;;;;;;12.43;4.28;;;;;;;-1.12;79.82;98449.96;1753550;81;21183;-74
2020/12/01 11:44:14;;;;;;;5.83;4.25;;;;;;;-0.98;79.35;98446.45;1751005;80;21185;-74
2020/12/01 11:46:42;;;;;;;7.33;4.28;;;;;;;-0.96;79.17;98444.66;1738990;81;21151;-75
2020/12/01 11:49:11;;;;;;;6.72;4.85;;;;;;;-0.87;78.41;98445.59;1750541;80;21157;-75
2020/12/01 11:51:42;;;;;;;7.50;4.70;;;;;;;-0.89;78.74;98432.05;1760093;81;21631;-75
2020/12/01 11:54:11;;;;;;;4.67;4.00;;;;;;;-0.84;78.69;98435.26;1731398;81;21236;-75
2020/12/01 11:56:45;;;;;;;6.20;4.30;;;;;;;-0.86;78.94;98431.95;1758325;80;21212;-75
2020/12/01 11:59:19;;;;;;;14.18;4.95;;;;;;;-0.94;78.70;98432.70;1716757;81;21677;-75
2020/12/01 12:01:48;;;;;;;8.78;4.83;;;;;;;-1.11;79.74;98428.25;1772210;81;21699;-75
2020/12/01 12:04:30;;;;;;;10.23;5.17;;;;;;;-1.03;79.72;98421.14;1791970;77;23403;-75
2020/12/01 12:07:02;;;;;;;11.85;4.03;;;;;;;-1.31;80.51;98421.81;1813455;78;21226;-75
2020/12/01 12:09:34;;;;;;;;;;;;;;;-1.39;80.84;98424.27;1800658;78;21257;-75
2020/12/01 12:12:02;;;;;;;4.37;3.65;;;;;;;-1.30;80.66;98410.74;1791553;78;20141;-75
2020/12/01 12:14:32;;;;;;;8.40;5.28;;;;;;;-1.19;80.10;98416.25;1803619;78;21224;-75
2020/12/01 12:17:06;;;;;;;8.90;5.22;;;;;;;-1.18;79.63;98417.92;1794482;79;21164;-75
2020/12/01 12:19:36;;;;;;;8.03;4.30;;;;;;;-1.23;79.70;98422.80;1808358;78;21180;-75
2020/12/01 12:22:16;;;;;;;5.87;3.42;;;;;;;-0.94;79.09;98414.02;1811319;78;21163;-75
2020/12/01 12:24:42;;;;;;;5.08;3.10;;;;;;;-0.88;78.00;98405.67;1799945;78;21607;-75
2020/12/01 12:27:11;;;;;;;6.35;3.90;;;;;;;-1.01;78.73;98417.23;1827587;78;21718;-75
2020/12/01 12:29:42;;;;;;;8.55;6.03;;;;;;;-0.91;78.80;98408.80;1801614;78;21156;-75
2020/12/01 12:32:11;;;;;;;5.73;3.47;;;;;;;-1.04;79.11;98406.73;1759689;80;21153;-75
2020/12/01 12:34:41;;;;;;;9.58;4.58;;;;;;;-0.77;78.73;98406.50;1794473;79;21664;-75
2020/12/01 12:37:09;;;;;;;10.05;3.77;;;;;;;-0.71;78.34;98405.00;1794505;78;21180;-75
2020/12/01 12:39:40;;;;;;;8.80;4.90;;;;;;;-0.61;77.82;98410.93;1794157;78;21164;-75
2020/12/01 12:42:09;;;;;;;7.85;4.42;;;;;;;-0.47;77.30;98411.65;1794912;78;21153;-75
2020/12/01 12:44:41;;;;;;;12.78;4.53;;;;;;;-0.55;77.14;98408.14;1815072;78;21179;-75
2020/12/01 12:47:09;;;;;;;13.93;6.40;;;;;;;-0.44;77.13;98404.30;1796244;78;21153;-75
2020/12/01 12:49:38;;;;;;;8.25;5.05;;;;;;;-0.69;77.65;98407.03;1794697;78;21145;-75
2020/12/01 12:52:08;;;;;;;8.03;4.95;;;;;;;-0.64;77.39;98407.23;1799556;78;21179;-75
2020/12/01 12:54:36;;;;;;;7.58;4.85;;;;;;;-0.54;77.28;98402.13;1803193;78;21541;-75
2020/12/01 12:57:04;;;;;;;8.58;5.50;;;;;;;-0.59;77.29;98404.06;1818763;78;21195;-75